sensor_id;sensor_type;location;lat;lon;timestamp;P1;durP1;ratioP1;P2;durP2;ratioP2
21438;SDS011;10880;50.302;18.736;2023-12-20T00:01:18;10.03;;;6.17;;
21438;SDS011;10880;50.302;18.736;2023-12-20T00:03:45;7.73;;;4.83;;
21438;SDS011;10880;50.302;18.736;2023-12-20T00:06:12;9.27;;;5.37;;
21438;SDS011;10880;50.302;18.736;2023-12-20T00:08:42;9.83;;;5.87;;
21438;SDS011;10880;50.302;18.736;2023-12-20T00:11:10;16.47;;;8.00;;
21438;SDS011;10880;50.302;18.736;2023-12-20T00:13:43;12.43;;;6.93;;
21438;SDS011;10880;50.302;18.736;2023-12-20T00:16:11;16.80;;;7.97;;
21438;SDS011;10880;50.302;18.736;2023-12-20T00:18:39;13.17;;;7.40;;
21438;SDS011;10880;50.302;18.736;2023-12-20T00:21:10;12.90;;;7.30;;
21438;SDS011;10880;50.302;18.736;2023-12-20T00:23:38;11.77;;;6.70;;
21438;SDS011;10880;50.302;18.736;2023-12-20T00:26:06;9.80;;;6.27;;
21438;SDS011;10880;50.302;18.736;2023-12-20T00:28:36;9.47;;;5.43;;
21438;SDS011;10880;50.302;18.736;2023-12-20T00:31:06;9.00;;;5.90;;
21438;SDS011;10880;50.302;18.736;2023-12-20T00:33:35;8.90;;;5.53;;
21438;SDS011;10880;50.302;18.736;2023-12-20T00:36:05;8.77;;;5.43;;
21438;SDS011;10880;50.302;18.736;2023-12-20T00:38:55;8.37;;;5.53;;
21438;SDS011;10880;50.302;18.736;2023-12-20T00:41:28;8.30;;;6.23;;
21438;SDS011;10880;50.302;18.736;2023-12-20T00:43:57;8.27;;;5.37;;
21438;SDS011;10880;50.302;18.736;2023-12-20T00:46:24;11.00;;;6.03;;
21438;SDS011;10880;50.302;18.736;2023-12-20T00:49:02;8.77;;;6.20;;
21438;SDS011;10880;50.302;18.736;2023-12-20T00:51:30;8.77;;;5.97;;
21438;SDS011;10880;50.302;18.736;2023-12-20T00:53:58;15.97;;;8.30;;
21438;SDS011;10880;50.302;18.736;2023-12-20T00:56:25;12.30;;;7.10;;
21438;SDS011;10880;50.302;18.736;2023-12-20T00:58:55;10.10;;;6.07;;
21438;SDS011;10880;50.302;18.736;2023-12-20T01:01:25;11.33;;;7.20;;
21438;SDS011;10880;50.302;18.736;2023-12-20T01:03:52;9.73;;;6.50;;
21438;SDS011;10880;50.302;18.736;2023-12-20T01:06:26;9.57;;;6.47;;
21438;SDS011;10880;50.302;18.736;2023-12-20T01:09:02;9.20;;;5.83;;
21438;SDS011;10880;50.302;18.736;2023-12-20T01:11:29;12.50;;;7.63;;
21438;SDS011;10880;50.302;18.736;2023-12-20T01:14:01;10.80;;;6.13;;
21438;SDS011;10880;50.302;18.736;2023-12-20T01:16:31;9.60;;;6.33;;
21438;SDS011;10880;50.302;18.736;2023-12-20T01:19:04;8.87;;;5.63;;
21438;SDS011;10880;50.302;18.736;2023-12-20T01:21:32;7.87;;;5.67;;
21438;SDS011;10880;50.302;18.736;2023-12-20T01:24:00;8.13;;;5.40;;
21438;SDS011;10880;50.302;18.736;2023-12-20T01:26:36;8.63;;;5.70;;
21438;SDS011;10880;50.302;18.736;2023-12-20T01:29:03;8.53;;;5.33;;
21438;SDS011;10880;50.302;18.736;2023-12-20T01:31:33;8.37;;;5.30;;
21438;SDS011;10880;50.302;18.736;2023-12-20T01:34:00;8.47;;;5.50;;
21438;SDS011;10880;50.302;18.736;2023-12-20T01:36:27;8.20;;;5.37;;
21438;SDS011;10880;50.302;18.736;2023-12-20T01:38:56;6.73;;;4.80;;
21438;SDS011;10880;50.302;18.736;2023-12-20T01:41:22;9.13;;;5.00;;
21438;SDS011;10880;50.302;18.736;2023-12-20T01:43:50;6.67;;;4.37;;
21438;SDS011;10880;50.302;18.736;2023-12-20T01:46:19;6.60;;;4.50;;
21438;SDS011;10880;50.302;18.736;2023-12-20T01:48:47;8.67;;;5.10;;
21438;SDS011;10880;50.302;18.736;2023-12-20T01:51:14;8.83;;;4.67;;
21438;SDS011;10880;50.302;18.736;2023-12-20T01:53:41;10.60;;;5.70;;
21438;SDS011;10880;50.302;18.736;2023-12-20T01:56:08;8.83;;;5.07;;
21438;SDS011;10880;50.302;18.736;2023-12-20T01:58:43;8.10;;;4.97;;
21438;SDS011;10880;50.302;18.736;2023-12-20T02:01:11;9.00;;;4.70;;
21438;SDS011;10880;50.302;18.736;2023-12-20T02:03:38;10.80;;;5.33;;
21438;SDS011;10880;50.302;18.736;2023-12-20T02:06:08;9.87;;;4.97;;
21438;SDS011;10880;50.302;18.736;2023-12-20T02:08:35;9.27;;;5.57;;
21438;SDS011;10880;50.302;18.736;2023-12-20T02:11:06;6.53;;;4.73;;
21438;SDS011;10880;50.302;18.736;2023-12-20T02:13:37;6.97;;;4.77;;
21438;SDS011;10880;50.302;18.736;2023-12-20T02:16:03;6.40;;;4.10;;
21438;SDS011;10880;50.302;18.736;2023-12-20T02:18:31;6.33;;;4.43;;
21438;SDS011;10880;50.302;18.736;2023-12-20T02:21:04;6.00;;;4.20;;
21438;SDS011;10880;50.302;18.736;2023-12-20T02:26:36;9.07;;;5.33;;
21438;SDS011;10880;50.302;18.736;2023-12-20T02:29:06;7.53;;;4.63;;
21438;SDS011;10880;50.302;18.736;2023-12-20T02:35:13;6.57;;;4.10;;
21438;SDS011;10880;50.302;18.736;2023-12-20T02:37:40;6.57;;;4.33;;
21438;SDS011;10880;50.302;18.736;2023-12-20T02:40:11;5.73;;;3.90;;
21438;SDS011;10880;50.302;18.736;2023-12-20T02:42:38;5.47;;;4.00;;
21438;SDS011;10880;50.302;18.736;2023-12-20T02:45:07;5.60;;;4.10;;
21438;SDS011;10880;50.302;18.736;2023-12-20T02:48:00;6.00;;;3.63;;
21438;SDS011;10880;50.302;18.736;2023-12-20T02:50:31;5.87;;;4.20;;
21438;SDS011;10880;50.302;18.736;2023-12-20T02:53:02;6.83;;;4.03;;
21438;SDS011;10880;50.302;18.736;2023-12-20T02:55:30;6.50;;;4.50;;
21438;SDS011;10880;50.302;18.736;2023-12-20T02:57:59;7.30;;;4.60;;
21438;SDS011;10880;50.302;18.736;2023-12-20T03:00:28;6.50;;;4.77;;
21438;SDS011;10880;50.302;18.736;2023-12-20T03:02:57;6.53;;;4.40;;
21438;SDS011;10880;50.302;18.736;2023-12-20T03:05:35;7.07;;;4.43;;
21438;SDS011;10880;50.302;18.736;2023-12-20T03:08:02;7.30;;;4.40;;
21438;SDS011;10880;50.302;18.736;2023-12-20T03:10:33;6.63;;;4.27;;
21438;SDS011;10880;50.302;18.736;2023-12-20T03:13:09;7.63;;;4.43;;
21438;SDS011;10880;50.302;18.736;2023-12-20T03:15:37;8.90;;;5.43;;
21438;SDS011;10880;50.302;18.736;2023-12-20T03:18:07;9.10;;;5.53;;
21438;SDS011;10880;50.302;18.736;2023-12-20T03:20:34;8.27;;;5.03;;
21438;SDS011;10880;50.302;18.736;2023-12-20T03:23:02;7.20;;;4.53;;
21438;SDS011;10880;50.302;18.736;2023-12-20T03:25:31;6.53;;;4.70;;
21438;SDS011;10880;50.302;18.736;2023-12-20T03:28:04;5.10;;;4.13;;
21438;SDS011;10880;50.302;18.736;2023-12-20T03:30:32;6.70;;;4.27;;
21438;SDS011;10880;50.302;18.736;2023-12-20T03:32:59;6.93;;;4.70;;
21438;SDS011;10880;50.302;18.736;2023-12-20T03:35:28;10.17;;;5.33;;
21438;SDS011;10880;50.302;18.736;2023-12-20T03:37:56;12.93;;;6.57;;
21438;SDS011;10880;50.302;18.736;2023-12-20T03:40:25;19.57;;;9.47;;
21438;SDS011;10880;50.302;18.736;2023-12-20T03:42:52;15.00;;;8.97;;
21438;SDS011;10880;50.302;18.736;2023-12-20T03:45:19;13.53;;;7.20;;
21438;SDS011;10880;50.302;18.736;2023-12-20T03:47:47;12.50;;;7.07;;
21438;SDS011;10880;50.302;18.736;2023-12-20T03:50:22;21.63;;;11.03;;
21438;SDS011;10880;50.302;18.736;2023-12-20T03:52:49;20.83;;;10.37;;
21438;SDS011;10880;50.302;18.736;2023-12-20T03:55:16;14.57;;;8.67;;
21438;SDS011;10880;50.302;18.736;2023-12-20T03:57:45;12.73;;;7.13;;
21438;SDS011;10880;50.302;18.736;2023-12-20T04:00:12;9.27;;;5.77;;
21438;SDS011;10880;50.302;18.736;2023-12-20T04:02:39;8.87;;;5.47;;
21438;SDS011;10880;50.302;18.736;2023-12-20T04:05:10;9.40;;;5.90;;
21438;SDS011;10880;50.302;18.736;2023-12-20T04:07:39;8.80;;;5.80;;
21438;SDS011;10880;50.302;18.736;2023-12-20T04:10:07;8.57;;;5.73;;
21438;SDS011;10880;50.302;18.736;2023-12-20T04:12:35;7.87;;;4.77;;
21438;SDS011;10880;50.302;18.736;2023-12-20T04:15:04;7.00;;;4.60;;
21438;SDS011;10880;50.302;18.736;2023-12-20T04:17:35;9.03;;;5.70;;
21438;SDS011;10880;50.302;18.736;2023-12-20T04:20:07;8.40;;;5.43;;
21438;SDS011;10880;50.302;18.736;2023-12-20T04:22:37;8.27;;;5.33;;
21438;SDS011;10880;50.302;18.736;2023-12-20T04:25:07;8.17;;;5.00;;
21438;SDS011;10880;50.302;18.736;2023-12-20T04:27:35;6.33;;;4.40;;
21438;SDS011;10880;50.302;18.736;2023-12-20T04:30:04;6.80;;;5.00;;
21438;SDS011;10880;50.302;18.736;2023-12-20T04:32:39;6.80;;;4.33;;
21438;SDS011;10880;50.302;18.736;2023-12-20T04:35:12;7.13;;;4.90;;
21438;SDS011;10880;50.302;18.736;2023-12-20T04:37:43;8.37;;;5.50;;
21438;SDS011;10880;50.302;18.736;2023-12-20T04:40:10;9.27;;;5.50;;
21438;SDS011;10880;50.302;18.736;2023-12-20T04:42:37;6.97;;;4.77;;
21438;SDS011;10880;50.302;18.736;2023-12-20T04:45:04;6.70;;;4.23;;
21438;SDS011;10880;50.302;18.736;2023-12-20T04:47:31;8.63;;;4.83;;
21438;SDS011;10880;50.302;18.736;2023-12-20T04:49:58;7.67;;;5.10;;
21438;SDS011;10880;50.302;18.736;2023-12-20T04:52:28;6.57;;;4.57;;
21438;SDS011;10880;50.302;18.736;2023-12-20T04:54:58;6.53;;;4.60;;
21438;SDS011;10880;50.302;18.736;2023-12-20T04:57:27;7.73;;;4.90;;
21438;SDS011;10880;50.302;18.736;2023-12-20T04:59:54;7.73;;;4.60;;
21438;SDS011;10880;50.302;18.736;2023-12-20T05:02:21;7.70;;;4.13;;
21438;SDS011;10880;50.302;18.736;2023-12-20T05:04:50;7.37;;;4.30;;
21438;SDS011;10880;50.302;18.736;2023-12-20T05:07:19;6.10;;;4.40;;
21438;SDS011;10880;50.302;18.736;2023-12-20T05:09:47;5.87;;;4.10;;
21438;SDS011;10880;50.302;18.736;2023-12-20T05:12:15;7.90;;;5.03;;
21438;SDS011;10880;50.302;18.736;2023-12-20T05:14:43;7.73;;;5.17;;
21438;SDS011;10880;50.302;18.736;2023-12-20T05:17:13;8.30;;;5.00;;
21438;SDS011;10880;50.302;18.736;2023-12-20T05:19:41;10.60;;;6.00;;
21438;SDS011;10880;50.302;18.736;2023-12-20T05:22:12;15.80;;;7.53;;
21438;SDS011;10880;50.302;18.736;2023-12-20T05:24:39;20.20;;;8.97;;
21438;SDS011;10880;50.302;18.736;2023-12-20T05:27:06;17.20;;;8.17;;
21438;SDS011;10880;50.302;18.736;2023-12-20T05:29:34;16.27;;;7.70;;
21438;SDS011;10880;50.302;18.736;2023-12-20T05:32:05;16.77;;;7.90;;
21438;SDS011;10880;50.302;18.736;2023-12-20T05:34:34;16.47;;;7.83;;
21438;SDS011;10880;50.302;18.736;2023-12-20T05:37:11;17.27;;;7.53;;
21438;SDS011;10880;50.302;18.736;2023-12-20T05:39:47;19.43;;;9.47;;
21438;SDS011;10880;50.302;18.736;2023-12-20T05:42:18;15.07;;;8.00;;
21438;SDS011;10880;50.302;18.736;2023-12-20T05:44:45;12.87;;;6.50;;
21438;SDS011;10880;50.302;18.736;2023-12-20T05:47:13;12.77;;;6.87;;
21438;SDS011;10880;50.302;18.736;2023-12-20T05:49:41;11.57;;;6.80;;
21438;SDS011;10880;50.302;18.736;2023-12-20T05:52:09;12.67;;;6.80;;
21438;SDS011;10880;50.302;18.736;2023-12-20T05:54:39;13.27;;;7.57;;
21438;SDS011;10880;50.302;18.736;2023-12-20T05:57:09;17.03;;;8.97;;
21438;SDS011;10880;50.302;18.736;2023-12-20T05:59:38;14.40;;;8.00;;
21438;SDS011;10880;50.302;18.736;2023-12-20T06:02:07;10.90;;;6.17;;
21438;SDS011;10880;50.302;18.736;2023-12-20T06:04:53;12.27;;;6.93;;
21438;SDS011;10880;50.302;18.736;2023-12-20T06:07:23;10.43;;;6.13;;
21438;SDS011;10880;50.302;18.736;2023-12-20T06:09:50;10.63;;;6.40;;
21438;SDS011;10880;50.302;18.736;2023-12-20T06:12:17;9.93;;;6.33;;
21438;SDS011;10880;50.302;18.736;2023-12-20T06:14:44;11.17;;;5.80;;
21438;SDS011;10880;50.302;18.736;2023-12-20T06:17:11;9.53;;;5.50;;
21438;SDS011;10880;50.302;18.736;2023-12-20T06:19:39;7.80;;;4.90;;
21438;SDS011;10880;50.302;18.736;2023-12-20T06:22:10;8.37;;;5.67;;
21438;SDS011;10880;50.302;18.736;2023-12-20T06:24:38;9.07;;;5.27;;
21438;SDS011;10880;50.302;18.736;2023-12-20T06:27:06;8.20;;;5.10;;
21438;SDS011;10880;50.302;18.736;2023-12-20T06:29:38;8.97;;;5.80;;
21438;SDS011;10880;50.302;18.736;2023-12-20T06:32:07;10.10;;;6.17;;
21438;SDS011;10880;50.302;18.736;2023-12-20T06:34:38;10.50;;;6.60;;
21438;SDS011;10880;50.302;18.736;2023-12-20T06:37:06;12.13;;;7.00;;
21438;SDS011;10880;50.302;18.736;2023-12-20T06:39:37;16.53;;;8.13;;
21438;SDS011;10880;50.302;18.736;2023-12-20T06:42:07;13.07;;;7.27;;
21438;SDS011;10880;50.302;18.736;2023-12-20T06:44:35;10.60;;;6.23;;
21438;SDS011;10880;50.302;18.736;2023-12-20T06:47:09;10.07;;;6.17;;
21438;SDS011;10880;50.302;18.736;2023-12-20T06:49:40;13.07;;;6.83;;
21438;SDS011;10880;50.302;18.736;2023-12-20T06:52:09;17.60;;;9.57;;
21438;SDS011;10880;50.302;18.736;2023-12-20T06:55:00;17.43;;;9.57;;
21438;SDS011;10880;50.302;18.736;2023-12-20T06:57:47;13.67;;;7.87;;
21438;SDS011;10880;50.302;18.736;2023-12-20T07:00:21;12.23;;;6.40;;
21438;SDS011;10880;50.302;18.736;2023-12-20T07:02:57;13.87;;;7.00;;
21438;SDS011;10880;50.302;18.736;2023-12-20T07:05:33;12.97;;;7.30;;
21438;SDS011;10880;50.302;18.736;2023-12-20T07:08:02;14.47;;;7.90;;
21438;SDS011;10880;50.302;18.736;2023-12-20T07:10:30;15.50;;;8.60;;
21438;SDS011;10880;50.302;18.736;2023-12-20T07:12:58;13.40;;;7.47;;
21438;SDS011;10880;50.302;18.736;2023-12-20T07:15:48;12.37;;;7.10;;
21438;SDS011;10880;50.302;18.736;2023-12-20T07:18:45;10.50;;;6.33;;
21438;SDS011;10880;50.302;18.736;2023-12-20T07:21:13;12.43;;;6.20;;
21438;SDS011;10880;50.302;18.736;2023-12-20T07:23:41;10.00;;;6.30;;
21438;SDS011;10880;50.302;18.736;2023-12-20T07:26:09;9.20;;;6.00;;
21438;SDS011;10880;50.302;18.736;2023-12-20T07:28:37;9.10;;;5.67;;
21438;SDS011;10880;50.302;18.736;2023-12-20T07:31:07;10.57;;;6.43;;
21438;SDS011;10880;50.302;18.736;2023-12-20T07:33:40;10.40;;;6.17;;
21438;SDS011;10880;50.302;18.736;2023-12-20T07:36:07;10.20;;;5.90;;
21438;SDS011;10880;50.302;18.736;2023-12-20T07:38:36;10.27;;;5.60;;
21438;SDS011;10880;50.302;18.736;2023-12-20T07:41:10;12.00;;;6.83;;
21438;SDS011;10880;50.302;18.736;2023-12-20T07:43:37;8.70;;;5.67;;
21438;SDS011;10880;50.302;18.736;2023-12-20T07:46:06;10.67;;;6.07;;
21438;SDS011;10880;50.302;18.736;2023-12-20T07:48:40;9.07;;;5.60;;
21438;SDS011;10880;50.302;18.736;2023-12-20T07:51:07;8.13;;;5.83;;
21438;SDS011;10880;50.302;18.736;2023-12-20T07:53:36;8.00;;;5.07;;
21438;SDS011;10880;50.302;18.736;2023-12-20T07:56:19;8.03;;;5.10;;
21438;SDS011;10880;50.302;18.736;2023-12-20T07:58:55;13.57;;;7.03;;
21438;SDS011;10880;50.302;18.736;2023-12-20T08:01:23;9.87;;;5.80;;
21438;SDS011;10880;50.302;18.736;2023-12-20T08:03:53;9.17;;;6.37;;
21438;SDS011;10880;50.302;18.736;2023-12-20T08:06:23;10.37;;;6.10;;
21438;SDS011;10880;50.302;18.736;2023-12-20T08:08:50;9.57;;;5.37;;
21438;SDS011;10880;50.302;18.736;2023-12-20T08:11:18;9.57;;;5.77;;
21438;SDS011;10880;50.302;18.736;2023-12-20T08:13:45;9.53;;;5.70;;
21438;SDS011;10880;50.302;18.736;2023-12-20T08:16:12;8.23;;;5.40;;
21438;SDS011;10880;50.302;18.736;2023-12-20T08:18:44;10.90;;;6.53;;
21438;SDS011;10880;50.302;18.736;2023-12-20T08:21:11;8.70;;;5.47;;
21438;SDS011;10880;50.302;18.736;2023-12-20T08:23:39;14.30;;;7.87;;
21438;SDS011;10880;50.302;18.736;2023-12-20T08:26:09;9.87;;;6.10;;
21438;SDS011;10880;50.302;18.736;2023-12-20T08:28:36;9.37;;;5.90;;
21438;SDS011;10880;50.302;18.736;2023-12-20T08:31:14;9.40;;;5.40;;
21438;SDS011;10880;50.302;18.736;2023-12-20T08:33:48;9.67;;;5.77;;
21438;SDS011;10880;50.302;18.736;2023-12-20T08:36:20;11.10;;;6.70;;
21438;SDS011;10880;50.302;18.736;2023-12-20T08:39:07;12.03;;;6.80;;
21438;SDS011;10880;50.302;18.736;2023-12-20T08:41:34;15.50;;;6.90;;
21438;SDS011;10880;50.302;18.736;2023-12-20T08:44:14;11.70;;;7.27;;
21438;SDS011;10880;50.302;18.736;2023-12-20T08:46:42;10.63;;;7.27;;
21438;SDS011;10880;50.302;18.736;2023-12-20T08:49:18;11.00;;;6.63;;
21438;SDS011;10880;50.302;18.736;2023-12-20T08:51:48;12.60;;;7.20;;
21438;SDS011;10880;50.302;18.736;2023-12-20T08:54:32;11.13;;;6.60;;
21438;SDS011;10880;50.302;18.736;2023-12-20T08:57:06;10.57;;;5.90;;
21438;SDS011;10880;50.302;18.736;2023-12-20T08:59:36;9.50;;;6.10;;
21438;SDS011;10880;50.302;18.736;2023-12-20T09:02:14;13.00;;;7.83;;
21438;SDS011;10880;50.302;18.736;2023-12-20T09:04:47;11.20;;;7.00;;
21438;SDS011;10880;50.302;18.736;2023-12-20T09:07:26;8.20;;;5.83;;
21438;SDS011;10880;50.302;18.736;2023-12-20T09:10:03;11.20;;;6.50;;
21438;SDS011;10880;50.302;18.736;2023-12-20T09:12:47;9.80;;;6.20;;
21438;SDS011;10880;50.302;18.736;2023-12-20T09:15:25;11.57;;;6.50;;
21438;SDS011;10880;50.302;18.736;2023-12-20T09:18:15;10.87;;;6.23;;
21438;SDS011;10880;50.302;18.736;2023-12-20T09:20:46;12.27;;;7.30;;
21438;SDS011;10880;50.302;18.736;2023-12-20T09:23:15;12.07;;;6.83;;
21438;SDS011;10880;50.302;18.736;2023-12-20T09:25:48;13.00;;;6.60;;
21438;SDS011;10880;50.302;18.736;2023-12-20T09:28:17;10.13;;;6.70;;
21438;SDS011;10880;50.302;18.736;2023-12-20T09:30:50;10.07;;;6.53;;
21438;SDS011;10880;50.302;18.736;2023-12-20T09:33:26;11.03;;;6.63;;
21438;SDS011;10880;50.302;18.736;2023-12-20T09:35:56;13.20;;;7.30;;
21438;SDS011;10880;50.302;18.736;2023-12-20T09:38:31;12.07;;;6.13;;
21438;SDS011;10880;50.302;18.736;2023-12-20T09:40:58;10.20;;;6.43;;
21438;SDS011;10880;50.302;18.736;2023-12-20T09:43:32;9.77;;;6.10;;
21438;SDS011;10880;50.302;18.736;2023-12-20T09:46:20;10.13;;;5.80;;
21438;SDS011;10880;50.302;18.736;2023-12-20T09:48:52;11.07;;;6.23;;
21438;SDS011;10880;50.302;18.736;2023-12-20T09:51:23;9.63;;;6.33;;
21438;SDS011;10880;50.302;18.736;2023-12-20T09:53:51;12.87;;;7.40;;
21438;SDS011;10880;50.302;18.736;2023-12-20T09:56:21;14.07;;;8.57;;
21438;SDS011;10880;50.302;18.736;2023-12-20T09:58:48;9.77;;;6.23;;
21438;SDS011;10880;50.302;18.736;2023-12-20T10:01:18;10.07;;;6.83;;
21438;SDS011;10880;50.302;18.736;2023-12-20T10:03:45;7.57;;;5.33;;
21438;SDS011;10880;50.302;18.736;2023-12-20T10:06:13;11.30;;;5.70;;
21438;SDS011;10880;50.302;18.736;2023-12-20T10:08:40;12.03;;;7.37;;
21438;SDS011;10880;50.302;18.736;2023-12-20T10:11:11;8.87;;;5.93;;
21438;SDS011;10880;50.302;18.736;2023-12-20T10:13:39;10.03;;;5.60;;
21438;SDS011;10880;50.302;18.736;2023-12-20T10:16:07;10.00;;;5.93;;
21438;SDS011;10880;50.302;18.736;2023-12-20T10:18:34;9.60;;;5.87;;
21438;SDS011;10880;50.302;18.736;2023-12-20T10:21:01;7.20;;;4.70;;
21438;SDS011;10880;50.302;18.736;2023-12-20T10:23:29;7.10;;;4.67;;
21438;SDS011;10880;50.302;18.736;2023-12-20T10:25:57;6.93;;;5.03;;
21438;SDS011;10880;50.302;18.736;2023-12-20T10:28:26;9.53;;;5.43;;
21438;SDS011;10880;50.302;18.736;2023-12-20T10:30:54;6.43;;;4.90;;
21438;SDS011;10880;50.302;18.736;2023-12-20T10:33:26;9.17;;;5.60;;
21438;SDS011;10880;50.302;18.736;2023-12-20T10:36:03;10.40;;;6.63;;
21438;SDS011;10880;50.302;18.736;2023-12-20T10:38:31;8.90;;;6.03;;
21438;SDS011;10880;50.302;18.736;2023-12-20T10:40:59;12.73;;;6.73;;
21438;SDS011;10880;50.302;18.736;2023-12-20T10:43:33;9.23;;;5.57;;
21438;SDS011;10880;50.302;18.736;2023-12-20T10:46:02;11.00;;;6.70;;
21438;SDS011;10880;50.302;18.736;2023-12-20T10:48:33;9.80;;;6.20;;
21438;SDS011;10880;50.302;18.736;2023-12-20T10:51:01;7.93;;;5.27;;
21438;SDS011;10880;50.302;18.736;2023-12-20T10:53:31;8.03;;;4.83;;
21438;SDS011;10880;50.302;18.736;2023-12-20T10:56:00;8.30;;;5.83;;
21438;SDS011;10880;50.302;18.736;2023-12-20T10:58:27;7.50;;;5.30;;
21438;SDS011;10880;50.302;18.736;2023-12-20T11:00:57;6.47;;;4.73;;
21438;SDS011;10880;50.302;18.736;2023-12-20T11:03:27;9.43;;;5.53;;
21438;SDS011;10880;50.302;18.736;2023-12-20T11:06:18;8.47;;;5.23;;
21438;SDS011;10880;50.302;18.736;2023-12-20T11:08:56;7.37;;;4.63;;
21438;SDS011;10880;50.302;18.736;2023-12-20T11:11:39;8.67;;;5.37;;
21438;SDS011;10880;50.302;18.736;2023-12-20T11:14:33;10.23;;;6.47;;
21438;SDS011;10880;50.302;18.736;2023-12-20T11:17:10;8.67;;;5.20;;
21438;SDS011;10880;50.302;18.736;2023-12-20T11:20:14;6.87;;;4.77;;
21438;SDS011;10880;50.302;18.736;2023-12-20T11:22:36;8.67;;;5.30;;
21438;SDS011;10880;50.302;18.736;2023-12-20T11:25:05;10.27;;;6.23;;
21438;SDS011;10880;50.302;18.736;2023-12-20T11:27:34;8.13;;;5.00;;
21438;SDS011;10880;50.302;18.736;2023-12-20T11:30:02;8.23;;;5.70;;
21438;SDS011;10880;50.302;18.736;2023-12-20T11:32:35;9.17;;;5.63;;
21438;SDS011;10880;50.302;18.736;2023-12-20T11:37:42;8.63;;;6.03;;
21438;SDS011;10880;50.302;18.736;2023-12-20T11:40:15;10.20;;;5.90;;
21438;SDS011;10880;50.302;18.736;2023-12-20T11:42:50;7.00;;;4.50;;
21438;SDS011;10880;50.302;18.736;2023-12-20T11:45:18;9.20;;;5.67;;
21438;SDS011;10880;50.302;18.736;2023-12-20T11:47:48;7.67;;;5.53;;
21438;SDS011;10880;50.302;18.736;2023-12-20T11:50:16;12.50;;;6.60;;
21438;SDS011;10880;50.302;18.736;2023-12-20T11:52:44;10.53;;;5.53;;
21438;SDS011;10880;50.302;18.736;2023-12-20T11:55:12;6.30;;;4.10;;
21438;SDS011;10880;50.302;18.736;2023-12-20T11:57:40;15.33;;;6.40;;
21438;SDS011;10880;50.302;18.736;2023-12-20T12:00:08;8.27;;;5.27;;
21438;SDS011;10880;50.302;18.736;2023-12-20T12:02:41;5.80;;;4.00;;
21438;SDS011;10880;50.302;18.736;2023-12-20T12:05:08;7.10;;;4.93;;
21438;SDS011;10880;50.302;18.736;2023-12-20T12:07:38;10.40;;;6.23;;
21438;SDS011;10880;50.302;18.736;2023-12-20T12:10:09;11.30;;;6.73;;
21438;SDS011;10880;50.302;18.736;2023-12-20T12:12:59;7.97;;;5.60;;
21438;SDS011;10880;50.302;18.736;2023-12-20T12:15:33;8.03;;;4.70;;
21438;SDS011;10880;50.302;18.736;2023-12-20T12:18:06;5.67;;;4.10;;
21438;SDS011;10880;50.302;18.736;2023-12-20T12:20:38;7.67;;;4.23;;
21438;SDS011;10880;50.302;18.736;2023-12-20T12:23:27;7.73;;;5.03;;
21438;SDS011;10880;50.302;18.736;2023-12-20T12:25:59;7.23;;;4.97;;
21438;SDS011;10880;50.302;18.736;2023-12-20T12:28:27;8.93;;;5.00;;
21438;SDS011;10880;50.302;18.736;2023-12-20T12:30:56;8.90;;;5.10;;
21438;SDS011;10880;50.302;18.736;2023-12-20T12:33:29;7.70;;;4.47;;
21438;SDS011;10880;50.302;18.736;2023-12-20T12:36:16;6.07;;;4.00;;
21438;SDS011;10880;50.302;18.736;2023-12-20T12:38:58;6.00;;;4.10;;
21438;SDS011;10880;50.302;18.736;2023-12-20T12:41:33;5.20;;;3.63;;
21438;SDS011;10880;50.302;18.736;2023-12-20T12:44:03;4.33;;;3.57;;
21438;SDS011;10880;50.302;18.736;2023-12-20T12:46:34;4.67;;;3.43;;
21438;SDS011;10880;50.302;18.736;2023-12-20T12:49:19;4.70;;;3.50;;
21438;SDS011;10880;50.302;18.736;2023-12-20T12:52:07;6.57;;;4.30;;
21438;SDS011;10880;50.302;18.736;2023-12-20T12:54:40;6.93;;;4.30;;
21438;SDS011;10880;50.302;18.736;2023-12-20T12:57:11;9.27;;;5.17;;
21438;SDS011;10880;50.302;18.736;2023-12-20T12:59:45;7.53;;;5.00;;
21438;SDS011;10880;50.302;18.736;2023-12-20T13:02:30;13.43;;;7.83;;
21438;SDS011;10880;50.302;18.736;2023-12-20T13:05:01;11.07;;;6.83;;
21438;SDS011;10880;50.302;18.736;2023-12-20T13:07:30;10.83;;;6.50;;
21438;SDS011;10880;50.302;18.736;2023-12-20T13:09:59;10.13;;;5.90;;
21438;SDS011;10880;50.302;18.736;2023-12-20T13:12:33;9.70;;;6.00;;
21438;SDS011;10880;50.302;18.736;2023-12-20T13:15:10;8.70;;;5.17;;
21438;SDS011;10880;50.302;18.736;2023-12-20T13:17:47;13.63;;;6.63;;
21438;SDS011;10880;50.302;18.736;2023-12-20T13:20:37;12.13;;;6.63;;
21438;SDS011;10880;50.302;18.736;2023-12-20T13:23:08;12.80;;;6.57;;
21438;SDS011;10880;50.302;18.736;2023-12-20T13:25:41;15.50;;;8.23;;
21438;SDS011;10880;50.302;18.736;2023-12-20T13:28:23;13.03;;;7.87;;
21438;SDS011;10880;50.302;18.736;2023-12-20T13:31:06;11.77;;;7.20;;
21438;SDS011;10880;50.302;18.736;2023-12-20T13:33:36;10.20;;;6.57;;
21438;SDS011;10880;50.302;18.736;2023-12-20T13:36:10;16.30;;;7.33;;
21438;SDS011;10880;50.302;18.736;2023-12-20T13:38:39;11.83;;;7.10;;
21438;SDS011;10880;50.302;18.736;2023-12-20T13:41:21;16.57;;;9.43;;
21438;SDS011;10880;50.302;18.736;2023-12-20T13:44:01;14.17;;;8.53;;
21438;SDS011;10880;50.302;18.736;2023-12-20T13:46:51;17.17;;;8.77;;
21438;SDS011;10880;50.302;18.736;2023-12-20T13:49:27;12.30;;;6.87;;
21438;SDS011;10880;50.302;18.736;2023-12-20T13:52:09;14.67;;;8.13;;
21438;SDS011;10880;50.302;18.736;2023-12-20T13:54:38;11.87;;;6.70;;
21438;SDS011;10880;50.302;18.736;2023-12-20T13:57:17;14.27;;;8.13;;
21438;SDS011;10880;50.302;18.736;2023-12-20T13:59:52;11.43;;;7.00;;
21438;SDS011;10880;50.302;18.736;2023-12-20T14:02:36;17.03;;;9.23;;
21438;SDS011;10880;50.302;18.736;2023-12-20T14:05:17;14.10;;;7.77;;
21438;SDS011;10880;50.302;18.736;2023-12-20T14:07:54;10.80;;;6.50;;
21438;SDS011;10880;50.302;18.736;2023-12-20T14:10:43;9.20;;;6.03;;
21438;SDS011;10880;50.302;18.736;2023-12-20T14:13:14;13.23;;;7.30;;
21438;SDS011;10880;50.302;18.736;2023-12-20T14:15:51;11.93;;;7.03;;
21438;SDS011;10880;50.302;18.736;2023-12-20T14:18:24;12.23;;;7.20;;
21438;SDS011;10880;50.302;18.736;2023-12-20T14:21:10;11.63;;;6.97;;
21438;SDS011;10880;50.302;18.736;2023-12-20T14:23:44;10.37;;;6.10;;
21438;SDS011;10880;50.302;18.736;2023-12-20T14:26:18;8.43;;;5.03;;
21438;SDS011;10880;50.302;18.736;2023-12-20T14:29:10;8.33;;;4.90;;
21438;SDS011;10880;50.302;18.736;2023-12-20T14:31:45;8.43;;;4.90;;
21438;SDS011;10880;50.302;18.736;2023-12-20T14:34:20;7.93;;;4.60;;
21438;SDS011;10880;50.302;18.736;2023-12-20T14:37:03;6.33;;;4.40;;
21438;SDS011;10880;50.302;18.736;2023-12-20T14:39:36;8.07;;;4.93;;
21438;SDS011;10880;50.302;18.736;2023-12-20T14:42:12;9.87;;;5.57;;
21438;SDS011;10880;50.302;18.736;2023-12-20T14:44:43;12.63;;;7.07;;
21438;SDS011;10880;50.302;18.736;2023-12-20T14:47:58;9.90;;;5.73;;
21438;SDS011;10880;50.302;18.736;2023-12-20T14:50:32;10.80;;;5.90;;
21438;SDS011;10880;50.302;18.736;2023-12-20T14:53:07;9.17;;;5.37;;
21438;SDS011;10880;50.302;18.736;2023-12-20T14:55:40;10.47;;;5.80;;
21438;SDS011;10880;50.302;18.736;2023-12-20T14:58:19;8.97;;;5.37;;
21438;SDS011;10880;50.302;18.736;2023-12-20T15:01:09;8.80;;;4.67;;
21438;SDS011;10880;50.302;18.736;2023-12-20T15:03:53;7.87;;;4.97;;
21438;SDS011;10880;50.302;18.736;2023-12-20T15:06:26;9.17;;;5.40;;